Pagrindinis puslapis
METAR-TAF:

METAR-TAF

Oro uostai :

Karsas, Turkija

platuma: 40-36N, ilguma: 043-05E, Aukštis: 1775 m

Dabartinis oras

Ataskaita buvo paskelbta 44 minutes, ne 05:50 UTC
Vėjas 4 kt iš Vakarų/Šiaurės Vakarų, svyruoja nuo Vakarų/Pietvakarių ir Šiaurės/Šiaurės Rytų
Temperatūra 5°C
Drėgmė 70%
Slėgis 1010 hPa
Matomumas 10 km arba daugiau
Išsisklaidę debesys ne aukštis 3500 ft

METAR: LTCF 100550Z 30004KT 250V020 9999 SCT035 05/00 Q1010

Laikas: 09:34 (06:34 UTC)

Prognozė

Ataskaita buvo paskelbta 1 valandą ir 54 minutes, ne 04:40 UTC
Prognozė galioja nuo 10 metu 06 UTC su 10 metu 15 UTC
Vėjas 2 kt nuo kintamojo kryptimis
Matomumas 10 km arba daugiau
Išsisklaidę debesys ne aukštis 4000 ft
Tapsmas
nuo 10 metu 09 UTC su 10 metu 11 UTC
Mažai debesys ne aukštis 3000 ft, Liūtiniai kamuoliniai debesys.
Su prošvaistėmis ne aukštis 3500 ft
Laikinai
nuo 10 metu 11 UTC su 10 metu 15 UTC
lietus

TAF: LTCF 100440Z 1006/1015 VRB02KT 9999 SCT040 BECMG 1009/1011 FEW030CB BKN035 TEMPO 1011/1015 -SHRA

Orai ataskaitas ir orų prognozės (METAR, TAF).

turimą stotys yra geltonos ir raudonos taškus žemėlapyje.

Perkelti pele per norėdami pamatyti stoties vardą.

Tada spustelėkite, norėdami matyti oro stebėjimo ir prognozės.

Norėdami pakeisti žemėlapį: spustelėkite ant žalios mygtukų su juodo kryžiaus žemyn,; žalią mygtuką su brūkšneliu, jei norite nutolinti; arba žalių rodyklių gretimoms žemėlapius.


METAR-TAF: